createdAt,value
2022-11-16T00:02:18.743Z,88.08
2022-11-16T00:04:45.683Z,88.08
2022-11-16T00:07:12.670Z,88.04
2022-11-16T00:09:39.603Z,88.07
2022-11-16T00:12:08.786Z,88.12
2022-11-16T00:14:36.145Z,88.15
2022-11-16T00:17:03.784Z,88.08
2022-11-16T00:19:30.964Z,88.35
2022-11-16T00:21:58.157Z,88.36
2022-11-16T00:24:25.099Z,88.06
2022-11-16T00:26:54.150Z,88.43
2022-11-16T00:29:24.065Z,88.27
2022-11-16T00:31:51.580Z,88.49
2022-11-16T00:34:18.597Z,88.32
2022-11-16T00:36:45.973Z,88.50
2022-11-16T00:39:13.909Z,88.33
2022-11-16T00:41:41.331Z,88.68
2022-11-16T00:44:08.195Z,88.47
2022-11-16T00:46:35.073Z,88.52
2022-11-16T00:49:01.969Z,88.65
2022-11-16T00:51:28.886Z,88.57
2022-11-16T00:53:55.839Z,88.81
2022-11-16T00:56:22.929Z,88.93
2022-11-16T00:58:49.887Z,88.76
2022-11-16T01:01:16.904Z,88.82
2022-11-16T01:03:43.970Z,88.55
2022-11-16T01:06:13.708Z,88.80
2022-11-16T01:08:41.718Z,88.79
2022-11-16T01:11:28.099Z,88.70
2022-11-16T01:13:55.465Z,88.82
2022-11-16T01:16:23.282Z,88.95
2022-11-16T01:18:54.295Z,88.87
2022-11-16T01:21:22.586Z,88.68
2022-11-16T01:23:49.566Z,88.81
2022-11-16T01:26:16.748Z,88.97
2022-11-16T01:28:43.690Z,89.05
2022-11-16T01:31:10.659Z,88.88
2022-11-16T01:33:37.791Z,88.98
2022-11-16T01:36:10.705Z,88.89
2022-11-16T01:38:37.649Z,89.09
2022-11-16T01:41:04.529Z,89.40
2022-11-16T01:43:49.255Z,89.28
2022-11-16T01:46:16.683Z,89.28
2022-11-16T01:48:43.688Z,89.33
2022-11-16T01:51:10.604Z,89.38
2022-11-16T01:53:37.484Z,89.23
2022-11-16T01:56:04.708Z,89.31
2022-11-16T01:58:31.848Z,89.34
2022-11-16T02:03:44.515Z,89.43
2022-11-16T02:06:20.341Z,89.51
2022-11-16T02:09:29.825Z,89.36
2022-11-16T02:12:43.015Z,89.52
2022-11-16T02:15:09.907Z,89.36
2022-11-16T02:17:44.953Z,89.43
2022-11-16T02:20:37.993Z,89.22
2022-11-16T02:23:07.792Z,89.49
2022-11-16T02:26:05.595Z,89.25
2022-11-16T02:29:10.214Z,89.50
2022-11-16T02:31:38.159Z,89.44
2022-11-16T02:34:05.555Z,89.33
2022-11-16T02:36:32.438Z,89.44
2022-11-16T02:39:02.471Z,89.51
2022-11-16T02:41:32.848Z,89.63
2022-11-16T02:44:05.111Z,89.67
2022-11-16T02:46:36.380Z,89.42
2022-11-16T02:49:04.040Z,89.68
2022-11-16T02:51:30.998Z,89.56
2022-11-16T02:54:03.265Z,89.63
2022-11-16T02:56:30.479Z,89.66
2022-11-16T02:58:58.400Z,89.57
2022-11-16T03:01:28.112Z,89.63
2022-11-16T03:03:58.412Z,89.93
2022-11-16T03:06:30.457Z,89.62
2022-11-16T03:09:00.714Z,89.47
2022-11-16T03:11:46.071Z,89.73
2022-11-16T03:14:15.870Z,89.93
2022-11-16T03:16:48.946Z,89.54
2022-11-16T03:19:18.923Z,89.68
2022-11-16T03:21:48.952Z,89.69
2022-11-16T03:24:15.952Z,89.95
2022-11-16T03:26:51.757Z,89.88
2022-11-16T03:29:27.292Z,90.08
2022-11-16T03:31:57.201Z,89.84
2022-11-16T03:34:26.310Z,89.68
2022-11-16T03:36:56.026Z,89.77
2022-11-16T03:39:26.008Z,89.92
2022-11-16T03:41:52.911Z,90.19
2022-11-16T03:44:19.790Z,89.94
2022-11-16T03:46:46.737Z,89.90
2022-11-16T03:49:13.637Z,90.02
2022-11-16T03:51:40.519Z,89.90
2022-11-16T03:54:07.432Z,90.06
2022-11-16T03:56:34.307Z,89.99
2022-11-16T03:59:01.221Z,89.99
2022-11-16T04:01:28.148Z,89.84
2022-11-16T04:03:55.091Z,90.21
2022-11-16T04:06:40.864Z,90.17
2022-11-16T04:09:27.872Z,89.79
2022-11-16T04:12:13.216Z,89.88
2022-11-16T04:14:58.767Z,90.07
2022-11-16T04:17:44.399Z,90.28
2022-11-16T04:20:31.756Z,90.19
2022-11-16T04:23:35.341Z,90.28
2022-11-16T04:26:02.385Z,89.89
2022-11-16T04:28:30.497Z,90.30
2022-11-16T04:31:17.792Z,90.48
2022-11-16T04:34:03.100Z,90.27
2022-11-16T04:36:48.931Z,90.18
2022-11-16T04:39:15.859Z,90.41
2022-11-16T04:42:01.401Z,90.13
2022-11-16T04:44:51.073Z,90.34
2022-11-16T04:47:17.941Z,90.62
2022-11-16T04:49:44.840Z,90.46
2022-11-16T04:52:11.902Z,90.40
2022-11-16T04:54:38.800Z,90.34
2022-11-16T04:57:05.761Z,90.64
2022-11-16T04:59:32.664Z,90.06
2022-11-16T05:02:08.453Z,90.72
2022-11-16T05:04:41.156Z,90.74
2022-11-16T05:07:12.508Z,90.72
2022-11-16T05:09:49.688Z,90.55
2022-11-16T05:12:21.594Z,90.47
2022-11-16T05:14:51.516Z,90.40
2022-11-16T05:17:19.239Z,90.61
2022-11-16T05:20:04.674Z,90.65
2022-11-16T05:22:31.625Z,90.57
2022-11-16T05:24:58.740Z,90.77
2022-11-16T05:27:26.889Z,90.59
2022-11-16T05:29:55.058Z,90.52
2022-11-16T05:32:22.679Z,90.58
2022-11-16T05:34:49.801Z,90.45
2022-11-16T05:37:17.079Z,90.49
2022-11-16T05:39:44.019Z,90.50
2022-11-16T05:42:10.905Z,90.41
2022-11-16T05:44:37.815Z,90.60
2022-11-16T05:47:04.863Z,90.38
2022-11-16T05:49:31.803Z,90.46
2022-11-16T05:51:58.756Z,90.49
2022-11-16T05:54:26.847Z,90.31
2022-11-16T05:56:54.297Z,90.67
2022-11-16T05:59:22.014Z,90.51
2022-11-16T06:01:49.689Z,90.34
2022-11-16T06:06:57.814Z,90.39
2022-11-16T06:09:24.856Z,90.47
2022-11-16T06:11:51.770Z,90.38
2022-11-16T06:14:19.081Z,90.11
2022-11-16T06:16:45.971Z,90.52
2022-11-16T06:19:12.851Z,90.38
2022-11-16T06:21:39.815Z,90.16
2022-11-16T06:24:09.220Z,90.16
2022-11-16T06:26:36.618Z,90.29
2022-11-16T06:29:03.593Z,90.20
2022-11-16T06:31:30.504Z,90.13
2022-11-16T06:33:57.426Z,90.15
2022-11-16T06:36:24.329Z,90.19
2022-11-16T06:38:51.293Z,90.30
2022-11-16T06:41:18.180Z,89.99
2022-11-16T06:43:45.201Z,90.20
2022-11-16T06:46:12.171Z,90.03
2022-11-16T06:48:39.059Z,90.15
2022-11-16T06:51:06.038Z,89.91
2022-11-16T06:53:32.920Z,90.09
2022-11-16T06:56:04.803Z,90.02
2022-11-16T06:58:32.603Z,89.65
2022-11-16T07:01:10.881Z,89.61
2022-11-16T07:03:38.144Z,89.92
2022-11-16T07:06:15.004Z,89.92
2022-11-16T07:08:41.983Z,89.94
2022-11-16T07:11:09.584Z,89.81
2022-11-16T07:13:37.519Z,89.75
2022-11-16T07:16:08.787Z,89.70
2022-11-16T07:18:37.695Z,89.77
2022-11-16T07:21:12.535Z,89.93
2022-11-16T07:23:39.807Z,89.74
2022-11-16T07:26:07.463Z,89.85
2022-11-16T07:28:34.679Z,89.75
2022-11-16T07:31:09.550Z,89.71
2022-11-16T07:33:36.888Z,89.77
2022-11-16T07:36:13.820Z,89.86
2022-11-16T07:38:40.824Z,89.73
2022-11-16T07:41:09.900Z,89.73
2022-11-16T07:44:06.435Z,89.65
2022-11-16T07:46:48.595Z,89.83
2022-11-16T07:49:26.401Z,89.61
2022-11-16T07:51:53.361Z,89.49
2022-11-16T07:57:34.697Z,89.48
2022-11-16T07:59:58.397Z,89.41
2022-11-16T08:02:25.731Z,89.28
2022-11-16T08:04:52.676Z,89.44
2022-11-16T08:07:19.594Z,89.46
2022-11-16T08:09:46.608Z,89.37
2022-11-16T08:12:13.527Z,89.47
2022-11-16T08:14:40.415Z,89.31
2022-11-16T08:17:10.361Z,89.28
2022-11-16T08:19:37.315Z,89.26
2022-11-16T08:22:04.199Z,89.51
2022-11-16T08:25:00.870Z,89.59
2022-11-16T08:27:28.647Z,89.81
2022-11-16T08:29:56.613Z,89.77
2022-11-16T08:32:23.516Z,89.78
2022-11-16T08:34:50.398Z,89.71
2022-11-16T08:37:17.718Z,89.71
2022-11-16T08:39:44.843Z,89.73
2022-11-16T08:42:11.809Z,89.79
2022-11-16T08:44:38.721Z,89.30
2022-11-16T08:47:05.686Z,89.78
2022-11-16T08:49:32.644Z,89.74
2022-11-16T08:51:59.563Z,89.55
2022-11-16T08:54:28.699Z,89.47
2022-11-16T08:56:58.260Z,89.57
2022-11-16T08:59:26.639Z,89.46
2022-11-16T09:01:53.631Z,89.21
2022-11-16T09:04:20.614Z,89.33
2022-11-16T09:06:47.948Z,89.29
2022-11-16T09:09:21.372Z,89.19
2022-11-16T09:11:48.371Z,89.04
2022-11-16T09:14:15.304Z,89.15
2022-11-16T09:16:42.203Z,89.09
2022-11-16T09:19:09.176Z,89.11
2022-11-16T09:21:38.540Z,89.15
2022-11-16T09:28:34.264Z,88.38
2022-11-16T09:31:04.137Z,88.46
2022-11-16T09:33:31.432Z,88.61
2022-11-16T09:36:02.845Z,88.48
2022-11-16T09:38:40.693Z,88.24
2022-11-16T09:41:16.647Z,88.06
2022-11-16T09:43:54.825Z,88.00
2022-11-16T09:46:36.565Z,87.87
2022-11-16T09:49:17.224Z,88.04
2022-11-16T09:51:50.349Z,87.88
2022-11-16T09:54:19.442Z,87.55
2022-11-16T09:56:46.895Z,87.67
2022-11-16T09:59:24.842Z,87.54
2022-11-16T10:01:54.641Z,87.68
2022-11-16T10:04:29.996Z,87.18
2022-11-16T10:07:06.578Z,87.15
2022-11-16T10:09:33.465Z,87.54
2022-11-16T10:12:05.542Z,87.35
2022-11-16T10:14:51.808Z,87.07
2022-11-16T10:17:27.839Z,86.97
2022-11-16T10:20:36.484Z,87.21
2022-11-16T10:23:24.794Z,86.96
2022-11-16T10:26:21.662Z,86.95
2022-11-16T10:29:05.187Z,86.75
2022-11-16T10:31:53.146Z,86.74
2022-11-16T10:34:28.503Z,86.44
2022-11-16T10:36:58.448Z,86.41
2022-11-16T10:39:27.906Z,86.33
2022-11-16T10:41:54.809Z,86.21
2022-11-16T10:44:53.929Z,86.20
2022-11-16T10:47:34.162Z,86.40
2022-11-16T10:50:21.134Z,86.36
2022-11-16T10:52:48.897Z,86.14
2022-11-16T10:55:16.132Z,85.90
2022-11-16T10:58:12.318Z,85.70
2022-11-16T11:00:48.398Z,85.74
2022-11-16T11:03:15.452Z,85.67
2022-11-16T11:05:52.554Z,85.18
2022-11-16T11:08:32.889Z,85.24
2022-11-16T11:11:21.744Z,84.96
2022-11-16T11:14:04.726Z,84.94
2022-11-16T11:16:31.635Z,84.94
2022-11-16T11:19:05.923Z,84.82
2022-11-16T11:21:38.255Z,84.26
2022-11-16T11:24:43.325Z,84.56
2022-11-16T11:27:02.665Z,84.13
2022-11-16T11:29:37.672Z,84.66
2022-11-16T11:32:06.659Z,84.60
2022-11-16T11:34:40.040Z,84.63
2022-11-16T11:37:07.855Z,84.63
2022-11-16T11:39:36.582Z,84.18
2022-11-16T11:42:12.535Z,84.26
2022-11-16T11:45:06.476Z,83.99
2022-11-16T11:47:59.114Z,84.20
2022-11-16T11:50:48.858Z,84.20
2022-11-16T11:53:37.768Z,83.73
2022-11-16T11:56:04.845Z,83.97
2022-11-16T11:58:33.532Z,83.92
2022-11-16T12:01:24.898Z,84.19
2022-11-16T12:04:12.676Z,83.74
2022-11-16T12:06:57.955Z,84.22
2022-11-16T12:09:30.253Z,84.19
2022-11-16T12:12:14.707Z,83.83
2022-11-16T12:15:10.571Z,83.93
2022-11-16T12:17:43.582Z,83.97
2022-11-16T12:20:19.598Z,84.10
2022-11-16T12:23:16.309Z,83.63
2022-11-16T12:25:50.136Z,83.55
2022-11-16T12:28:35.709Z,83.25
2022-11-16T12:31:21.365Z,83.53
2022-11-16T12:34:42.242Z,83.46
2022-11-16T12:37:23.232Z,83.41
2022-11-16T12:39:59.545Z,83.06
2022-11-16T12:42:47.900Z,82.52
2022-11-16T12:45:21.890Z,82.47
2022-11-16T12:48:21.073Z,82.52
2022-11-16T12:51:08.656Z,82.20
2022-11-16T12:53:47.800Z,82.18
2022-11-16T12:56:20.925Z,81.94
2022-11-16T12:59:01.698Z,81.82
2022-11-16T13:01:38.974Z,81.75
2022-11-16T13:04:21.030Z,81.64
2022-11-16T13:06:57.057Z,81.58
2022-11-16T13:09:29.764Z,81.34
2022-11-16T13:12:14.158Z,81.40
2022-11-16T13:14:48.844Z,81.04
2022-11-16T13:17:27.403Z,80.90
2022-11-16T13:20:14.227Z,80.94
2022-11-16T13:22:45.010Z,80.68
2022-11-16T13:25:19.578Z,81.13
2022-11-16T13:27:53.533Z,81.33
2022-11-16T13:30:22.892Z,81.38
2022-11-16T13:33:15.417Z,81.47
2022-11-16T13:35:42.551Z,81.13
2022-11-16T13:38:15.833Z,81.40
2022-11-16T13:40:42.799Z,81.22
2022-11-16T13:43:09.537Z,80.65
2022-11-16T13:45:57.208Z,80.69
2022-11-16T13:48:37.717Z,80.29
2022-11-16T13:51:06.487Z,80.37
2022-11-16T13:56:28.938Z,79.96
2022-11-16T13:58:59.155Z,79.96
2022-11-16T14:01:27.358Z,80.13
2022-11-16T14:04:32.461Z,79.62
2022-11-16T14:06:59.887Z,79.65
2022-11-16T14:10:05.648Z,79.33
2022-11-16T14:12:39.454Z,79.39
2022-11-16T14:15:16.032Z,79.42
2022-11-16T14:18:00.361Z,79.45
2022-11-16T14:20:34.738Z,79.25
2022-11-16T14:23:01.585Z,79.16
2022-11-16T14:25:55.807Z,79.27
2022-11-16T14:28:56.973Z,79.36
2022-11-16T14:31:50.710Z,79.57
2022-11-16T14:34:20.115Z,79.36
2022-11-16T14:36:47.280Z,79.07
2022-11-16T14:39:43.643Z,79.07
2022-11-16T14:42:22.025Z,78.93
2022-11-16T14:44:49.236Z,79.23
2022-11-16T14:47:29.596Z,79.17
2022-11-16T14:49:57.169Z,79.25
2022-11-16T14:52:36.729Z,78.95
2022-11-16T14:55:09.894Z,79.20
2022-11-16T14:57:36.774Z,79.12
2022-11-16T15:00:33.231Z,79.16
2022-11-16T15:03:02.817Z,79.26
2022-11-16T15:05:34.331Z,79.28
2022-11-16T15:08:01.452Z,79.33
2022-11-16T15:10:28.801Z,79.55
2022-11-16T15:13:00.836Z,79.58
2022-11-16T15:15:29.448Z,79.53
2022-11-16T15:17:59.151Z,79.59
2022-11-16T15:20:27.791Z,79.67
2022-11-16T15:22:58.344Z,79.65
2022-11-16T15:25:28.461Z,79.75
2022-11-16T15:27:56.865Z,79.73
2022-11-16T15:30:29.341Z,80.03
2022-11-16T15:32:57.124Z,80.06
2022-11-16T15:35:31.495Z,79.77
2022-11-16T15:38:20.589Z,79.81
2022-11-16T15:41:01.599Z,80.03
2022-11-16T15:43:44.835Z,79.81
2022-11-16T15:46:16.841Z,79.95
2022-11-16T15:48:43.756Z,80.19
2022-11-16T15:51:10.551Z,79.83
2022-11-16T15:53:41.055Z,80.05
2022-11-16T15:56:26.141Z,80.10
2022-11-16T15:58:54.163Z,80.03
2022-11-16T16:01:21.470Z,80.03
2022-11-16T16:03:57.952Z,80.26
2022-11-16T16:06:48.412Z,80.09
2022-11-16T16:09:27.100Z,80.52
2022-11-16T16:12:14.417Z,80.36
2022-11-16T16:14:41.304Z,80.53
2022-11-16T16:17:08.878Z,80.39
2022-11-16T16:19:45.387Z,80.60
2022-11-16T16:22:28.238Z,80.44
2022-11-16T16:24:55.411Z,80.54
2022-11-16T16:27:27.309Z,80.49
2022-11-16T16:29:55.918Z,80.54
2022-11-16T16:32:29.466Z,80.58
2022-11-16T16:34:58.125Z,80.69
2022-11-16T16:37:29.863Z,80.44
2022-11-16T16:39:57.434Z,80.71
2022-11-16T16:42:24.473Z,81.05
2022-11-16T16:44:51.432Z,80.98
2022-11-16T16:47:20.802Z,80.97
2022-11-16T16:49:50.926Z,80.92
2022-11-16T16:52:17.853Z,81.14
2022-11-16T16:54:44.833Z,81.06
2022-11-16T16:57:18.137Z,81.27
2022-11-16T16:59:45.788Z,81.18
2022-11-16T17:02:12.922Z,81.17
2022-11-16T17:04:40.215Z,81.19
2022-11-16T17:07:07.208Z,81.10
2022-11-16T17:09:34.121Z,81.39
2022-11-16T17:12:01.055Z,81.25
2022-11-16T17:14:27.950Z,81.42
2022-11-16T17:16:54.845Z,81.37
2022-11-16T17:19:24.459Z,81.30
2022-11-16T17:21:52.130Z,81.25
2022-11-16T17:24:19.499Z,81.37
2022-11-16T17:26:49.283Z,81.37
2022-11-16T17:29:16.633Z,81.56
2022-11-16T17:31:44.921Z,81.25
2022-11-16T17:34:13.732Z,81.35
2022-11-16T17:36:41.851Z,81.32
2022-11-16T17:39:08.936Z,81.18
2022-11-16T17:41:35.902Z,81.24
2022-11-16T17:44:03.328Z,81.21
2022-11-16T17:46:30.223Z,81.26
2022-11-16T17:48:57.222Z,81.37
2022-11-16T17:51:25.401Z,80.99
2022-11-16T17:53:52.630Z,81.26
2022-11-16T17:56:21.810Z,81.19
2022-11-16T17:58:50.285Z,81.27
2022-11-16T18:01:17.639Z,81.42
2022-11-16T18:03:45.098Z,81.54
2022-11-16T18:06:14.234Z,81.24
2022-11-16T18:08:41.833Z,81.06
2022-11-16T18:11:13.934Z,81.31
2022-11-16T18:13:41.058Z,81.45
2022-11-16T18:16:10.494Z,81.37
2022-11-16T18:18:38.498Z,81.38
2022-11-16T18:21:06.238Z,81.45
2022-11-16T18:23:36.102Z,81.35
2022-11-16T18:26:10.266Z,81.52
2022-11-16T18:28:37.423Z,81.27
2022-11-16T18:31:11.810Z,81.31
2022-11-16T18:33:41.885Z,81.28
2022-11-16T18:36:12.494Z,81.34
2022-11-16T18:38:39.438Z,81.21
2022-11-16T18:41:12.303Z,81.43
2022-11-16T18:44:01.022Z,81.53
2022-11-16T18:46:31.921Z,81.33
2022-11-16T18:49:02.003Z,81.48
2022-11-16T18:51:29.339Z,81.66
2022-11-16T18:53:59.493Z,81.49
2022-11-16T18:56:29.307Z,81.63
2022-11-16T18:58:56.554Z,81.48
2022-11-16T19:01:26.233Z,81.80
2022-11-16T19:03:53.885Z,81.76
2022-11-16T19:06:21.464Z,81.83
2022-11-16T19:08:55.813Z,81.63
2022-11-16T19:11:23.931Z,81.68
2022-11-16T19:13:56.996Z,81.69
2022-11-16T19:16:24.304Z,81.72
2022-11-16T19:18:51.341Z,81.88
2022-11-16T19:21:24.057Z,81.75
2022-11-16T19:23:54.365Z,81.88
2022-11-16T19:26:27.160Z,81.82
2022-11-16T19:28:54.140Z,81.77
2022-11-16T19:31:29.223Z,81.67
2022-11-16T19:34:04.461Z,82.07
2022-11-16T19:36:31.829Z,82.06
2022-11-16T19:39:00.159Z,81.67
2022-11-16T19:41:27.700Z,82.04
2022-11-16T19:43:57.526Z,81.79
2022-11-16T19:46:24.941Z,81.82
2022-11-16T19:48:52.046Z,81.90
2022-11-16T19:51:27.427Z,81.87
2022-11-16T19:53:54.821Z,81.96
2022-11-16T19:56:22.604Z,81.94
2022-11-16T19:58:49.708Z,81.99
2022-11-16T20:01:20.891Z,81.91
2022-11-16T20:03:49.053Z,82.11
2022-11-16T20:06:24.140Z,81.82
2022-11-16T20:08:53.191Z,81.82
2022-11-16T20:11:21.436Z,81.76
2022-11-16T20:13:49.333Z,81.91
2022-11-16T20:16:17.786Z,81.78
2022-11-16T20:18:44.923Z,81.74
2022-11-16T20:21:33.273Z,81.88
2022-11-16T20:24:06.126Z,81.77
2022-11-16T20:26:35.192Z,81.87
2022-11-16T20:29:02.252Z,81.88
2022-11-16T20:31:30.973Z,82.08
2022-11-16T20:34:03.139Z,81.96
2022-11-16T20:36:31.493Z,82.06
2022-11-16T20:38:59.091Z,82.07
2022-11-16T20:41:28.145Z,81.93
2022-11-16T20:43:56.855Z,81.73
2022-11-16T20:46:26.216Z,82.03
2022-11-16T20:48:53.497Z,81.78
2022-11-16T20:51:20.917Z,81.90
2022-11-16T20:53:49.103Z,81.84
2022-11-16T20:56:17.069Z,82.18
2022-11-16T20:58:46.489Z,81.80
2022-11-16T21:01:27.071Z,81.96
2022-11-16T21:03:59.968Z,81.96
2022-11-16T21:06:33.105Z,81.98
2022-11-16T21:09:00.134Z,81.89
2022-11-16T21:11:30.349Z,81.94
2022-11-16T21:14:16.048Z,81.85
2022-11-16T21:16:43.007Z,81.95
2022-11-16T21:19:10.021Z,81.90
2022-11-16T21:21:38.130Z,82.16
2022-11-16T21:24:05.124Z,81.95
2022-11-16T21:26:33.061Z,81.89
2022-11-16T21:29:00.881Z,81.81
2022-11-16T21:31:29.971Z,81.85
2022-11-16T21:33:57.817Z,81.84
2022-11-16T21:36:26.016Z,81.81
2022-11-16T21:38:53.213Z,82.01
2022-11-16T21:41:21.233Z,81.81
2022-11-16T21:43:48.203Z,81.87
2022-11-16T21:46:16.868Z,81.83
2022-11-16T21:48:44.083Z,81.66
2022-11-16T21:51:12.773Z,81.71
2022-11-16T21:53:39.803Z,81.92
2022-11-16T21:56:07.993Z,81.60
2022-11-16T21:58:34.888Z,81.78
2022-11-16T22:01:02.341Z,81.67
2022-11-16T22:03:30.598Z,81.78
2022-11-16T22:06:17.818Z,81.84
2022-11-16T22:08:44.938Z,81.78
2022-11-16T22:11:12.022Z,81.60
2022-11-16T22:13:38.944Z,81.66
2022-11-16T22:16:10.591Z,81.59
2022-11-16T22:18:37.612Z,81.80
2022-11-16T22:21:04.734Z,81.50
2022-11-16T22:23:31.978Z,81.91
2022-11-16T22:26:06.865Z,81.82
2022-11-16T22:28:34.471Z,81.84
2022-11-16T22:31:05.199Z,81.84
2022-11-16T22:33:33.308Z,81.67
2022-11-16T22:36:00.519Z,81.50
2022-11-16T22:38:27.677Z,81.97
2022-11-16T22:40:56.120Z,82.00
2022-11-16T22:43:28.168Z,81.70
2022-11-16T22:45:59.305Z,81.98
2022-11-16T22:48:36.534Z,81.85
2022-11-16T22:51:18.141Z,81.81
2022-11-16T22:53:45.133Z,82.09
2022-11-16T22:56:12.163Z,81.72
2022-11-16T22:58:39.492Z,82.02
2022-11-16T23:01:07.638Z,82.11
2022-11-16T23:03:35.112Z,82.03
2022-11-16T23:06:02.486Z,82.20
2022-11-16T23:08:29.360Z,81.81
2022-11-16T23:11:23.546Z,82.15
2022-11-16T23:14:09.606Z,81.88
2022-11-16T23:16:36.487Z,82.16
2022-11-16T23:19:03.604Z,82.26
2022-11-16T23:21:48.975Z,82.27
2022-11-16T23:24:34.431Z,82.25
2022-11-16T23:27:20.859Z,82.29
2022-11-16T23:29:47.842Z,82.30
2022-11-16T23:32:14.800Z,82.41
2022-11-16T23:34:41.747Z,82.49
2022-11-16T23:37:08.636Z,82.29
2022-11-16T23:39:35.516Z,82.40
2022-11-16T23:42:20.879Z,82.46
2022-11-16T23:44:47.771Z,82.44
2022-11-16T23:47:14.683Z,82.52
2022-11-16T23:49:41.609Z,82.49
2022-11-16T23:52:08.505Z,82.62
2022-11-16T23:54:35.407Z,82.40
2022-11-16T23:57:02.310Z,82.76
2022-11-16T23:59:29.204Z,82.67
